createdAt,value
2023-01-21T00:03:51.420Z,40.72
2023-01-21T00:08:53.928Z,40.13
2023-01-21T00:13:56.437Z,37.13
2023-01-21T00:19:00.343Z,37.10
2023-01-21T00:24:02.843Z,36.40
2023-01-21T00:29:05.353Z,35.42
2023-01-21T00:34:09.144Z,36.80
2023-01-21T00:39:11.677Z,37.17
2023-01-21T00:44:14.203Z,36.60
2023-01-21T00:49:17.972Z,30.40
2023-01-21T00:54:20.434Z,32.78
2023-01-21T00:59:23.061Z,32.40
2023-01-21T01:04:26.942Z,31.00
2023-01-21T01:09:29.523Z,32.10
2023-01-21T01:14:32.055Z,31.05
2023-01-21T01:19:35.840Z,34.60
2023-01-21T01:24:38.314Z,31.65
2023-01-21T01:29:40.754Z,33.50
2023-01-21T01:34:45.012Z,32.47
2023-01-21T01:39:47.507Z,32.47
2023-01-21T01:44:56.153Z,33.30
2023-01-21T01:50:01.085Z,34.45
2023-01-21T01:55:04.445Z,33.15
2023-01-21T02:00:07.996Z,35.90
2023-01-21T02:10:15.748Z,39.97
2023-01-21T02:15:18.433Z,44.35
2023-01-21T02:20:35.655Z,44.83
2023-01-21T02:25:59.263Z,46.33
2023-01-21T02:31:23.138Z,46.50
2023-01-21T02:36:36.474Z,49.23
2023-01-21T02:41:45.885Z,50.13
2023-01-21T02:46:50.979Z,49.50
2023-01-21T02:51:54.742Z,52.25
2023-01-21T02:56:57.189Z,53.88
2023-01-21T03:02:03.548Z,52.10
2023-01-21T03:07:09.084Z,60.08
2023-01-21T03:12:30.893Z,52.08
2023-01-21T03:17:36.554Z,57.00
2023-01-21T03:22:40.572Z,54.90
2023-01-21T03:27:44.101Z,50.92
2023-01-21T03:32:49.131Z,45.33
2023-01-21T03:37:54.883Z,49.25
2023-01-21T03:42:57.516Z,51.72
2023-01-21T03:48:01.538Z,46.27
2023-01-21T03:53:05.731Z,49.83
2023-01-21T03:58:08.142Z,44.33
2023-01-21T04:03:10.620Z,48.90
2023-01-21T04:08:14.384Z,50.63
2023-01-21T04:13:16.867Z,48.47
2023-01-21T04:18:19.297Z,46.80
2023-01-21T04:23:23.072Z,46.15
2023-01-21T04:28:25.533Z,43.65
2023-01-21T04:33:28.079Z,44.30
2023-01-21T04:38:32.003Z,39.45
2023-01-21T04:43:34.582Z,44.75
2023-01-21T04:48:36.989Z,43.63
2023-01-21T04:53:40.969Z,45.88
2023-01-21T04:58:43.473Z,51.35
2023-01-21T05:03:45.972Z,50.72
2023-01-21T05:08:49.865Z,49.20
2023-01-21T05:13:52.299Z,50.67
2023-01-21T05:18:54.834Z,50.58
2023-01-21T05:23:58.693Z,45.65
2023-01-21T05:29:01.151Z,48.20
2023-01-21T05:34:03.674Z,50.97
2023-01-21T05:39:07.514Z,49.00
2023-01-21T05:44:09.997Z,47.88
2023-01-21T05:49:12.561Z,46.38
2023-01-21T05:54:16.561Z,49.92
2023-01-21T05:59:18.981Z,49.53
2023-01-21T06:04:23.887Z,44.60
2023-01-21T06:09:27.857Z,41.05
2023-01-21T06:14:30.360Z,42.33
2023-01-21T06:19:32.848Z,41.17
2023-01-21T06:24:36.974Z,41.97
2023-01-21T06:29:39.506Z,37.25
2023-01-21T06:34:42.066Z,39.75
2023-01-21T06:39:46.080Z,36.67
2023-01-21T06:44:48.883Z,36.55
2023-01-21T06:49:51.351Z,35.00
2023-01-21T06:54:55.208Z,35.83
2023-01-21T06:59:57.666Z,32.05
2023-01-21T07:05:00.224Z,35.65
2023-01-21T07:10:04.357Z,34.15
2023-01-21T07:15:07.720Z,33.63
2023-01-21T07:20:12.286Z,36.63
2023-01-21T07:25:16.234Z,34.20
2023-01-21T07:30:20.167Z,35.78
2023-01-21T07:35:22.702Z,34.90
2023-01-21T07:40:26.609Z,36.60
2023-01-21T07:45:29.100Z,34.53
2023-01-21T07:50:31.643Z,33.97
2023-01-21T07:55:36.525Z,34.63
2023-01-21T08:00:39.044Z,36.75
2023-01-21T08:05:41.575Z,35.55
2023-01-21T08:10:45.768Z,33.25
2023-01-21T08:15:50.452Z,33.53
2023-01-21T08:20:55.277Z,37.60
2023-01-21T08:26:03.375Z,35.58
2023-01-21T08:31:06.662Z,34.70
2023-01-21T08:36:09.730Z,33.20
2023-01-21T08:41:13.762Z,32.75
2023-01-21T08:46:16.190Z,34.03
2023-01-21T08:51:18.725Z,30.88
2023-01-21T08:56:22.583Z,33.03
2023-01-21T09:01:25.868Z,32.75
2023-01-21T09:06:29.385Z,29.98
2023-01-21T09:11:33.987Z,28.90
2023-01-21T09:16:36.800Z,29.58
2023-01-21T09:21:39.310Z,29.13
2023-01-21T09:26:45.072Z,30.15
2023-01-21T09:31:47.636Z,31.15
2023-01-21T09:36:50.155Z,32.08
2023-01-21T09:41:55.575Z,28.95
2023-01-21T09:47:01.773Z,27.83
2023-01-21T09:52:07.363Z,34.25
2023-01-21T09:57:30.203Z,28.67
2023-01-21T10:02:37.901Z,28.20
2023-01-21T10:07:44.326Z,26.20
2023-01-21T10:12:58.790Z,26.70
2023-01-21T10:18:04.584Z,29.77
2023-01-21T10:23:08.682Z,28.23
2023-01-21T10:28:15.248Z,35.58
2023-01-21T10:33:19.249Z,30.50
2023-01-21T10:38:24.918Z,25.52
2023-01-21T10:43:37.094Z,23.73
2023-01-21T10:48:45.114Z,23.02
2023-01-21T10:53:50.036Z,22.95
2023-01-21T10:58:55.943Z,25.40
2023-01-21T11:03:59.325Z,25.52
2023-01-21T11:09:03.812Z,25.30
2023-01-21T11:14:07.753Z,22.70
2023-01-21T11:19:12.860Z,22.80
2023-01-21T11:24:22.213Z,23.63
2023-01-21T11:29:26.842Z,24.95
2023-01-21T11:34:29.413Z,22.08
2023-01-21T11:39:33.269Z,24.42
2023-01-21T11:44:37.336Z,24.08
2023-01-21T11:49:46.977Z,23.00
2023-01-21T11:54:49.488Z,27.00
2023-01-21T11:59:55.684Z,23.27
2023-01-21T12:05:00.044Z,23.70
2023-01-21T12:10:05.032Z,24.40
2023-01-21T12:15:18.210Z,25.08
2023-01-21T12:20:27.089Z,25.80
2023-01-21T12:25:38.393Z,22.85
2023-01-21T12:30:45.954Z,23.75
2023-01-21T12:35:51.073Z,26.02
2023-01-21T12:40:56.332Z,24.83
2023-01-21T12:46:02.952Z,25.70
2023-01-21T12:51:07.944Z,30.73
2023-01-21T12:56:14.550Z,29.42
2023-01-21T13:01:34.804Z,28.25
2023-01-21T13:06:53.223Z,25.67
2023-01-21T13:11:59.189Z,29.02
2023-01-21T13:17:04.474Z,26.85
2023-01-21T13:22:09.889Z,26.05
2023-01-21T13:27:15.606Z,23.95
2023-01-21T13:32:28.754Z,27.15
2023-01-21T13:37:34.756Z,25.33
2023-01-21T13:42:41.622Z,28.13
2023-01-21T13:48:02.747Z,26.00
2023-01-21T13:53:12.945Z,22.40
2023-01-21T13:58:19.826Z,23.13
2023-01-21T14:03:26.529Z,28.48
2023-01-21T14:08:33.145Z,23.33
2023-01-21T14:13:53.525Z,22.70
2023-01-21T14:19:03.326Z,22.30
2023-01-21T14:24:14.358Z,21.50
2023-01-21T14:29:20.918Z,23.77
2023-01-21T14:34:26.336Z,24.85
2023-01-21T14:39:40.930Z,26.95
2023-01-21T14:44:44.473Z,22.15
2023-01-21T14:54:50.554Z,24.08
2023-01-21T14:59:54.077Z,22.77
2023-01-21T15:10:01.729Z,23.00
2023-01-21T15:15:05.585Z,22.85
2023-01-21T15:20:26.756Z,22.35
2023-01-21T15:25:34.198Z,20.40
2023-01-21T15:30:50.651Z,23.90
2023-01-21T15:36:01.075Z,23.70
2023-01-21T15:41:08.521Z,24.65
2023-01-21T15:46:17.571Z,26.42
2023-01-21T15:51:27.150Z,32.42
2023-01-21T15:56:51.827Z,34.03
2023-01-21T16:02:08.282Z,33.45
2023-01-21T16:07:16.883Z,28.42
2023-01-21T16:12:25.736Z,30.60
2023-01-21T16:17:34.738Z,29.85
2023-01-21T16:22:40.094Z,34.85
2023-01-21T16:27:47.443Z,36.97
2023-01-21T16:33:07.083Z,44.30
2023-01-21T16:38:14.077Z,33.28
2023-01-21T16:43:22.446Z,35.97
2023-01-21T16:48:26.553Z,34.35
2023-01-21T16:53:29.055Z,31.30
2023-01-21T16:58:33.702Z,36.35
2023-01-21T17:03:36.178Z,35.00
2023-01-21T17:08:39.256Z,30.65
2023-01-21T17:13:43.858Z,31.50
2023-01-21T17:18:52.086Z,36.80
2023-01-21T17:23:56.083Z,37.13
2023-01-21T17:29:08.562Z,35.92
2023-01-21T17:34:21.863Z,35.13
2023-01-21T17:39:43.386Z,34.03
2023-01-21T17:44:48.489Z,34.80
2023-01-21T17:49:55.868Z,36.17
2023-01-21T17:55:11.202Z,41.35
2023-01-21T18:00:32.009Z,41.53
2023-01-21T18:05:36.091Z,37.15
2023-01-21T18:10:39.649Z,37.45
2023-01-21T18:15:44.278Z,39.53
2023-01-21T18:20:47.027Z,44.38
2023-01-21T18:25:52.207Z,39.08
2023-01-21T18:30:57.220Z,44.35
2023-01-21T18:35:59.942Z,42.78
2023-01-21T18:41:02.622Z,42.20
2023-01-21T18:46:10.455Z,43.17
2023-01-21T18:51:13.644Z,48.65
2023-01-21T18:56:17.105Z,44.50
2023-01-21T19:01:23.664Z,44.33
2023-01-21T19:06:26.800Z,46.85
2023-01-21T19:11:29.223Z,44.60
2023-01-21T19:16:33.040Z,37.72
2023-01-21T19:21:38.329Z,36.00
2023-01-21T19:26:40.824Z,39.05
2023-01-21T19:31:44.758Z,33.28
2023-01-21T19:36:47.656Z,30.80
2023-01-21T19:42:03.409Z,29.07
2023-01-21T19:47:15.914Z,28.48
2023-01-21T19:52:18.407Z,28.30
2023-01-21T19:57:20.843Z,27.98
2023-01-21T20:02:24.692Z,28.10
2023-01-21T20:07:27.205Z,25.45
2023-01-21T20:12:29.806Z,27.27
2023-01-21T20:17:33.740Z,22.98
2023-01-21T20:22:36.173Z,27.38
2023-01-21T20:27:38.806Z,25.13
2023-01-21T20:32:43.295Z,29.80
2023-01-21T20:37:48.755Z,28.70
2023-01-21T20:42:51.773Z,30.52
2023-01-21T20:47:57.731Z,27.15
2023-01-21T20:53:00.233Z,28.42
2023-01-21T20:58:02.889Z,27.58
2023-01-21T21:03:07.706Z,26.93
2023-01-21T21:08:11.998Z,25.90
2023-01-21T21:13:14.852Z,25.75
2023-01-21T21:18:18.685Z,25.33
2023-01-21T21:23:21.151Z,24.20
2023-01-21T21:28:23.753Z,25.95
2023-01-21T21:33:28.075Z,23.55
2023-01-21T21:38:30.507Z,24.25
2023-01-21T21:43:33.015Z,23.80
2023-01-21T21:48:39.487Z,26.25
2023-01-21T21:53:42.179Z,26.02
2023-01-21T21:58:44.875Z,24.90
2023-01-21T22:03:48.655Z,25.43
2023-01-21T22:08:53.519Z,30.02
2023-01-21T22:13:57.939Z,30.80
2023-01-21T22:19:01.994Z,29.67
2023-01-21T22:24:05.576Z,29.60
2023-01-21T22:34:11.871Z,30.55
2023-01-21T22:39:14.441Z,30.25
2023-01-21T22:44:16.991Z,30.88
2023-01-21T22:49:20.772Z,29.80
2023-01-21T22:54:23.230Z,30.17
2023-01-21T22:59:25.670Z,31.55
2023-01-21T23:04:29.531Z,32.80
2023-01-21T23:09:32.361Z,33.08
2023-01-21T23:14:34.800Z,31.03
2023-01-21T23:19:38.658Z,33.92
2023-01-21T23:24:41.115Z,34.00
2023-01-21T23:29:43.572Z,33.70
2023-01-21T23:34:47.389Z,33.95
2023-01-21T23:39:49.808Z,34.88
2023-01-21T23:44:52.362Z,38.80
2023-01-21T23:49:56.077Z,35.97
2023-01-21T23:54:58.468Z,34.83
